createdAt,value
2022-08-20T00:02:11.129Z,18.82
2022-08-20T00:04:39.755Z,18.74
2022-08-20T00:07:07.365Z,18.67
2022-08-20T00:09:36.772Z,18.57
2022-08-20T00:12:05.551Z,18.52
2022-08-20T00:14:34.427Z,18.52
2022-08-20T00:17:02.046Z,18.47
2022-08-20T00:19:29.763Z,18.47
2022-08-20T00:21:58.021Z,18.48
2022-08-20T00:24:26.359Z,18.46
2022-08-20T00:26:54.190Z,18.47
2022-08-20T00:29:22.575Z,18.49
2022-08-20T00:31:51.486Z,18.52
2022-08-20T00:34:19.237Z,18.54
2022-08-20T00:36:46.802Z,18.56
2022-08-20T00:39:14.312Z,18.54
2022-08-20T00:41:41.830Z,18.54
2022-08-20T00:44:13.309Z,18.55
2022-08-20T00:46:42.742Z,18.57
2022-08-20T00:49:18.878Z,18.58
2022-08-20T00:51:50.861Z,18.65
2022-08-20T00:54:23.018Z,18.65
2022-08-20T00:56:55.838Z,18.69
2022-08-20T00:59:28.500Z,18.66
2022-08-20T01:01:57.430Z,18.66
2022-08-20T01:04:28.385Z,18.66
2022-08-20T01:06:56.791Z,18.67
2022-08-20T01:09:49.838Z,18.69
2022-08-20T01:12:14.542Z,18.70
2022-08-20T01:14:43.180Z,18.65
2022-08-20T01:17:11.866Z,18.59
2022-08-20T01:19:48.639Z,18.53
2022-08-20T01:22:24.826Z,18.48
2022-08-20T01:25:02.373Z,18.39
2022-08-20T01:27:32.258Z,18.33
2022-08-20T01:30:06.113Z,18.26
2022-08-20T01:32:35.392Z,18.20
2022-08-20T01:35:02.874Z,18.16
2022-08-20T01:37:31.874Z,18.12
2022-08-20T01:39:59.268Z,18.06
2022-08-20T01:42:35.722Z,18.04
2022-08-20T01:45:04.321Z,18.04
2022-08-20T01:47:38.466Z,17.99
2022-08-20T01:50:15.854Z,17.98
2022-08-20T01:52:51.999Z,17.96
2022-08-20T01:55:19.859Z,17.93
2022-08-20T01:57:51.306Z,17.90
2022-08-20T02:00:21.949Z,17.87
2022-08-20T02:02:49.831Z,17.84
2022-08-20T02:05:18.210Z,17.80
2022-08-20T02:07:46.269Z,17.78
2022-08-20T02:10:16.853Z,17.75
2022-08-20T02:12:44.367Z,17.72
2022-08-20T02:15:14.093Z,17.73
2022-08-20T02:17:41.428Z,17.72
2022-08-20T02:20:12.325Z,17.71
2022-08-20T02:22:49.188Z,17.71
2022-08-20T02:25:20.792Z,17.74
2022-08-20T02:27:52.790Z,17.75
2022-08-20T02:30:28.605Z,17.75
2022-08-20T02:32:56.862Z,17.71
2022-08-20T02:35:26.417Z,17.64
2022-08-20T02:37:54.419Z,17.65
2022-08-20T02:40:30.081Z,17.62
2022-08-20T02:42:59.851Z,17.61
2022-08-20T02:45:31.619Z,17.58
2022-08-20T02:47:58.752Z,17.52
2022-08-20T02:50:27.369Z,17.49
2022-08-20T02:52:54.567Z,17.51
2022-08-20T02:55:27.136Z,17.48
2022-08-20T02:57:57.496Z,17.51
2022-08-20T03:00:25.798Z,17.51
2022-08-20T03:02:55.533Z,17.50
2022-08-20T03:05:22.753Z,17.45
2022-08-20T03:07:53.782Z,17.46
2022-08-20T03:10:24.200Z,17.46
2022-08-20T03:12:52.455Z,17.41
2022-08-20T03:15:20.478Z,17.40
2022-08-20T03:17:48.650Z,17.35
2022-08-20T03:20:17.464Z,17.35
2022-08-20T03:22:50.078Z,17.36
2022-08-20T03:25:18.057Z,17.34
2022-08-20T03:27:46.076Z,17.34
2022-08-20T03:30:15.519Z,17.30
2022-08-20T03:32:42.965Z,17.28
2022-08-20T03:35:13.435Z,17.31
2022-08-20T03:37:48.167Z,17.25
2022-08-20T03:40:20.004Z,17.20
2022-08-20T03:42:47.508Z,17.12
2022-08-20T03:45:20.234Z,17.12
2022-08-20T03:47:48.914Z,17.15
2022-08-20T03:50:23.644Z,17.12
2022-08-20T03:52:52.947Z,17.12
2022-08-20T03:55:22.604Z,17.10
2022-08-20T03:57:53.133Z,17.06
2022-08-20T04:00:23.825Z,17.05
2022-08-20T04:02:51.191Z,17.02
2022-08-20T04:05:18.555Z,16.97
2022-08-20T04:07:45.773Z,16.95
2022-08-20T04:10:15.225Z,16.93
2022-08-20T04:12:52.709Z,16.91
2022-08-20T04:15:21.756Z,16.88
2022-08-20T04:17:50.248Z,16.86
2022-08-20T04:20:20.000Z,16.85
2022-08-20T04:22:50.718Z,16.86
2022-08-20T04:25:30.585Z,16.81
2022-08-20T04:28:07.205Z,16.79
2022-08-20T04:30:36.301Z,16.80
2022-08-20T04:33:04.479Z,16.82
2022-08-20T04:35:32.669Z,16.85
2022-08-20T04:38:01.603Z,16.85
2022-08-20T04:40:30.589Z,16.85
2022-08-20T04:42:58.404Z,16.81
2022-08-20T04:45:25.854Z,16.83
2022-08-20T04:47:54.079Z,16.84
2022-08-20T04:50:22.588Z,16.88
2022-08-20T04:52:52.463Z,16.91
2022-08-20T04:55:20.169Z,16.93
2022-08-20T04:57:49.287Z,16.95
2022-08-20T05:00:17.470Z,16.94
2022-08-20T05:02:45.304Z,16.92
2022-08-20T05:05:14.243Z,16.90
2022-08-20T05:07:45.126Z,16.91
2022-08-20T05:10:15.219Z,16.90
2022-08-20T05:12:43.367Z,16.94
2022-08-20T05:15:26.245Z,16.98
2022-08-20T05:17:58.299Z,17.01
2022-08-20T05:20:26.071Z,17.05
2022-08-20T05:22:53.258Z,17.07
2022-08-20T05:25:20.788Z,17.13
2022-08-20T05:27:48.301Z,17.18
2022-08-20T05:30:16.489Z,17.22
2022-08-20T05:32:45.606Z,17.28
2022-08-20T05:35:13.160Z,17.30
2022-08-20T05:37:41.271Z,17.30
2022-08-20T05:40:12.104Z,17.34
2022-08-20T05:42:39.858Z,17.37
2022-08-20T05:45:11.173Z,17.39
2022-08-20T05:47:42.760Z,17.38
2022-08-20T05:50:20.700Z,17.38
2022-08-20T05:52:51.370Z,17.40
2022-08-20T05:55:19.243Z,17.44
2022-08-20T05:57:47.053Z,17.47
2022-08-20T06:00:15.833Z,17.55
2022-08-20T06:02:43.678Z,17.57
2022-08-20T06:05:13.146Z,17.66
2022-08-20T06:07:40.657Z,17.73
2022-08-20T06:10:09.576Z,17.78
2022-08-20T06:12:37.269Z,17.82
2022-08-20T06:15:05.435Z,17.82
2022-08-20T06:17:39.373Z,17.88
2022-08-20T06:20:09.246Z,17.93
2022-08-20T06:22:38.660Z,18.01
2022-08-20T06:25:07.595Z,18.08
2022-08-20T06:27:38.729Z,18.14
2022-08-20T06:30:07.845Z,18.16
2022-08-20T06:32:35.018Z,18.23
2022-08-20T06:35:03.781Z,18.24
2022-08-20T06:37:33.317Z,18.27
2022-08-20T06:40:04.450Z,18.32
2022-08-20T06:42:32.195Z,18.36
2022-08-20T06:44:59.702Z,18.40
2022-08-20T06:47:27.211Z,18.41
2022-08-20T06:49:54.400Z,18.46
2022-08-20T06:52:35.037Z,18.52
2022-08-20T06:55:11.799Z,18.52
2022-08-20T06:57:40.035Z,18.58
2022-08-20T07:00:11.483Z,18.68
2022-08-20T07:02:38.945Z,18.70
2022-08-20T07:05:07.998Z,18.76
2022-08-20T07:07:35.682Z,18.85
2022-08-20T07:10:05.927Z,18.89
2022-08-20T07:12:35.029Z,18.93
2022-08-20T07:15:03.944Z,18.97
2022-08-20T07:17:31.691Z,18.99
2022-08-20T07:19:59.753Z,19.05
2022-08-20T07:22:27.242Z,19.11
2022-08-20T07:24:54.769Z,19.19
2022-08-20T07:27:23.387Z,19.21
2022-08-20T07:29:53.448Z,19.24
2022-08-20T07:32:22.408Z,19.31
2022-08-20T07:34:56.165Z,19.40
2022-08-20T07:37:23.681Z,19.48
2022-08-20T07:39:50.700Z,19.55
2022-08-20T07:42:18.548Z,19.61
2022-08-20T07:44:45.781Z,19.69
2022-08-20T07:47:14.396Z,19.74
2022-08-20T07:49:41.626Z,19.79
2022-08-20T07:52:09.608Z,19.81
2022-08-20T07:54:36.773Z,19.88
2022-08-20T07:57:04.886Z,19.95
2022-08-20T07:59:32.365Z,20.04
2022-08-20T08:01:59.424Z,20.12
2022-08-20T08:04:28.287Z,20.22
2022-08-20T08:06:56.813Z,20.27
2022-08-20T08:09:23.794Z,20.27
2022-08-20T08:11:51.258Z,20.35
2022-08-20T08:14:22.780Z,20.48
2022-08-20T08:16:50.705Z,20.57
2022-08-20T08:19:18.826Z,20.66
2022-08-20T08:21:49.371Z,20.76
2022-08-20T08:24:21.140Z,20.76
2022-08-20T08:26:50.750Z,20.80
2022-08-20T08:29:18.322Z,20.88
2022-08-20T08:31:46.160Z,20.98
2022-08-20T08:34:13.414Z,21.03
2022-08-20T08:36:41.110Z,21.06
2022-08-20T08:39:10.626Z,21.14
2022-08-20T08:41:43.089Z,21.19
2022-08-20T08:44:20.481Z,21.28
2022-08-20T08:46:48.145Z,21.39
2022-08-20T08:49:20.489Z,21.46
2022-08-20T08:51:50.901Z,21.52
2022-08-20T08:54:22.696Z,21.58
2022-08-20T08:56:50.668Z,21.66
2022-08-20T08:59:21.647Z,21.78
2022-08-20T09:01:54.879Z,21.88
2022-08-20T09:04:24.504Z,21.97
2022-08-20T09:06:52.658Z,22.04
2022-08-20T09:09:25.145Z,22.14
2022-08-20T09:11:55.657Z,22.20
2022-08-20T09:14:24.475Z,22.27
2022-08-20T09:16:53.606Z,22.34
2022-08-20T09:19:21.519Z,22.46
2022-08-20T09:21:48.662Z,22.52
2022-08-20T09:24:16.539Z,22.66
2022-08-20T09:26:45.589Z,22.80
2022-08-20T09:29:13.421Z,22.91
2022-08-20T09:31:42.594Z,22.99
2022-08-20T09:34:09.917Z,23.06
2022-08-20T09:36:37.305Z,23.07
2022-08-20T09:39:04.961Z,23.03
2022-08-20T09:41:34.563Z,23.01
2022-08-20T09:44:03.629Z,23.03
2022-08-20T09:46:30.881Z,23.08
2022-08-20T09:48:58.423Z,23.05
2022-08-20T09:51:25.880Z,23.08
2022-08-20T09:53:53.099Z,23.11
2022-08-20T09:56:20.470Z,23.08
2022-08-20T09:58:51.029Z,23.17
2022-08-20T10:01:21.856Z,23.17
2022-08-20T10:03:50.198Z,23.21
2022-08-20T10:06:18.410Z,23.23
2022-08-20T10:08:46.250Z,23.21
2022-08-20T10:11:13.821Z,23.17
2022-08-20T10:13:41.179Z,23.11
2022-08-20T10:16:09.141Z,23.09
2022-08-20T10:18:38.209Z,23.04
2022-08-20T10:21:10.697Z,22.98
2022-08-20T10:23:38.105Z,22.91
2022-08-20T10:26:07.219Z,22.84
2022-08-20T10:28:34.872Z,22.77
2022-08-20T10:31:02.139Z,22.71
2022-08-20T10:33:29.089Z,22.66
2022-08-20T10:36:00.063Z,22.49
2022-08-20T10:38:27.720Z,22.31
2022-08-20T10:40:55.549Z,22.19
2022-08-20T10:43:23.129Z,22.17
2022-08-20T10:45:51.572Z,22.14
2022-08-20T10:48:21.643Z,22.11
2022-08-20T10:50:49.462Z,22.02
2022-08-20T10:53:18.951Z,21.96
2022-08-20T10:55:46.237Z,21.91
2022-08-20T10:58:13.302Z,21.88
2022-08-20T11:00:42.097Z,21.86
2022-08-20T11:03:09.224Z,21.76
2022-08-20T11:05:36.262Z,21.76
2022-08-20T11:08:05.137Z,21.72
2022-08-20T11:10:35.623Z,21.69
2022-08-20T11:13:03.939Z,21.68
2022-08-20T11:15:38.402Z,21.68
2022-08-20T11:18:06.924Z,21.58
2022-08-20T11:20:35.052Z,21.52
2022-08-20T11:23:03.290Z,21.43
2022-08-20T11:25:31.147Z,21.42
2022-08-20T11:27:59.865Z,21.36
2022-08-20T11:30:30.219Z,21.29
2022-08-20T11:32:59.048Z,21.24
2022-08-20T11:35:49.062Z,21.20
2022-08-20T11:38:16.227Z,21.15
2022-08-20T11:40:43.688Z,21.07
2022-08-20T11:43:15.225Z,20.98
2022-08-20T11:45:44.495Z,20.84
2022-08-20T11:48:11.878Z,20.74
2022-08-20T11:50:39.222Z,20.67
2022-08-20T11:53:06.213Z,20.61
2022-08-20T11:55:35.486Z,20.52
2022-08-20T11:58:02.758Z,20.47
2022-08-20T12:00:33.987Z,20.44
2022-08-20T12:03:02.039Z,20.36
2022-08-20T12:05:30.292Z,20.28
2022-08-20T12:08:00.777Z,20.25
2022-08-20T12:10:28.627Z,20.18
2022-08-20T12:12:56.711Z,20.10
2022-08-20T12:15:25.308Z,20.02
2022-08-20T12:17:55.287Z,19.97
2022-08-20T12:20:23.616Z,19.94
2022-08-20T12:22:50.980Z,19.91
2022-08-20T12:25:18.423Z,19.89
2022-08-20T12:27:47.283Z,19.85
2022-08-20T12:30:17.822Z,19.85
2022-08-20T12:32:46.546Z,19.81
2022-08-20T12:35:17.129Z,19.78
2022-08-20T12:37:45.747Z,19.71
2022-08-20T12:40:22.699Z,19.64
2022-08-20T12:43:00.689Z,19.59
2022-08-20T12:45:28.543Z,19.62
2022-08-20T12:48:01.849Z,19.64
2022-08-20T12:50:31.930Z,19.62
2022-08-20T12:52:59.682Z,19.61
2022-08-20T12:55:27.519Z,19.55
2022-08-20T12:57:56.939Z,19.55
2022-08-20T13:00:27.974Z,19.50
2022-08-20T13:02:58.926Z,19.51
2022-08-20T13:05:26.900Z,19.49
2022-08-20T13:07:55.669Z,19.52
2022-08-20T13:10:26.083Z,19.57
2022-08-20T13:12:53.234Z,19.59
2022-08-20T13:15:22.064Z,19.64
2022-08-20T13:17:51.862Z,19.68
2022-08-20T13:20:19.175Z,19.71
2022-08-20T13:22:46.288Z,19.72
2022-08-20T13:25:15.059Z,19.75
2022-08-20T13:27:43.511Z,19.78
2022-08-20T13:30:13.580Z,19.80
2022-08-20T13:32:41.142Z,19.79
2022-08-20T13:35:09.725Z,19.85
2022-08-20T13:37:37.144Z,19.91
2022-08-20T13:40:05.393Z,19.97
2022-08-20T13:42:33.903Z,20.02
2022-08-20T13:45:01.175Z,20.08
2022-08-20T13:47:30.100Z,20.12
2022-08-20T13:50:00.174Z,20.15
2022-08-20T13:52:28.935Z,20.21
2022-08-20T13:54:55.961Z,20.26
2022-08-20T13:57:25.272Z,20.32
2022-08-20T13:59:57.267Z,20.35
2022-08-20T14:02:25.899Z,20.41
2022-08-20T14:04:53.361Z,20.43
2022-08-20T14:07:22.987Z,20.42
2022-08-20T14:09:51.821Z,20.41
2022-08-20T14:12:18.780Z,20.42
2022-08-20T14:14:46.231Z,20.48
2022-08-20T14:17:20.857Z,20.55
2022-08-20T14:19:50.243Z,20.59
2022-08-20T14:22:18.374Z,20.65
2022-08-20T14:24:48.495Z,20.69
2022-08-20T14:27:18.930Z,20.76
2022-08-20T14:29:48.019Z,20.76
2022-08-20T14:32:17.632Z,20.83
2022-08-20T14:34:46.255Z,20.90
2022-08-20T14:37:16.280Z,21.05
2022-08-20T14:39:45.445Z,21.17
2022-08-20T14:42:13.095Z,21.31
2022-08-20T14:44:41.332Z,21.34
2022-08-20T14:47:15.285Z,21.43
2022-08-20T14:49:44.785Z,21.55
2022-08-20T14:52:13.931Z,21.59
2022-08-20T14:54:41.218Z,21.61
2022-08-20T14:57:13.009Z,21.63
2022-08-20T14:59:43.210Z,21.66
2022-08-20T15:02:14.239Z,21.68
2022-08-20T15:04:42.414Z,21.67
2022-08-20T15:07:24.993Z,21.66
2022-08-20T15:09:54.375Z,21.67
2022-08-20T15:12:22.207Z,21.63
2022-08-20T15:14:50.053Z,21.64
2022-08-20T15:17:20.315Z,21.63
2022-08-20T15:19:48.028Z,21.65
2022-08-20T15:22:18.092Z,21.69
2022-08-20T15:24:45.430Z,21.73
2022-08-20T15:27:17.079Z,21.71
2022-08-20T15:29:48.703Z,21.73
2022-08-20T15:32:16.527Z,21.66
2022-08-20T15:34:43.779Z,21.67
2022-08-20T15:37:13.129Z,21.72
2022-08-20T15:39:43.864Z,21.77
2022-08-20T15:42:12.848Z,21.79
2022-08-20T15:44:41.800Z,21.80
2022-08-20T15:47:21.742Z,21.79
2022-08-20T15:49:52.807Z,21.79
2022-08-20T15:52:20.319Z,21.81
2022-08-20T15:54:55.026Z,21.82
2022-08-20T15:57:38.297Z,21.84
2022-08-20T16:00:10.594Z,21.83
2022-08-20T16:03:12.137Z,21.84
2022-08-20T16:05:48.511Z,21.84
2022-08-20T16:08:45.304Z,21.84
2022-08-20T16:11:25.096Z,21.84
2022-08-20T16:13:57.464Z,21.87
2022-08-20T16:16:31.347Z,21.84
2022-08-20T16:18:59.671Z,21.82
2022-08-20T16:21:30.674Z,21.76
2022-08-20T16:23:58.357Z,21.77
2022-08-20T16:26:51.007Z,21.76
2022-08-20T16:29:21.640Z,21.79
2022-08-20T16:31:56.025Z,21.76
2022-08-20T16:34:34.485Z,21.75
2022-08-20T16:37:12.490Z,21.76
2022-08-20T16:39:47.581Z,21.76
2022-08-20T16:42:24.172Z,21.76
2022-08-20T16:44:56.889Z,21.71
2022-08-20T16:47:29.460Z,21.68
2022-08-20T16:49:59.812Z,21.68
2022-08-20T16:52:27.346Z,21.61
2022-08-20T16:54:54.381Z,21.59
2022-08-20T16:57:23.013Z,21.59
2022-08-20T17:00:08.479Z,21.60
2022-08-20T17:02:36.646Z,21.61
2022-08-20T17:05:05.565Z,21.62
2022-08-20T17:07:46.317Z,21.62
2022-08-20T17:10:18.119Z,21.61
2022-08-20T17:12:52.053Z,21.60
2022-08-20T17:15:23.769Z,21.52
2022-08-20T17:17:50.898Z,21.47
2022-08-20T17:20:20.246Z,21.42
2022-08-20T17:22:50.432Z,21.38
2022-08-20T17:25:20.786Z,21.41
2022-08-20T17:27:49.902Z,21.39
2022-08-20T17:30:26.405Z,21.38
2022-08-20T17:32:58.997Z,21.39
2022-08-20T17:35:38.344Z,21.36
2022-08-20T17:38:05.467Z,21.30
2022-08-20T17:40:42.204Z,21.28
2022-08-20T17:43:22.385Z,21.25
2022-08-20T17:45:49.584Z,21.19
2022-08-20T17:48:21.227Z,21.14
2022-08-20T17:50:48.812Z,21.12
2022-08-20T17:53:23.318Z,21.08
2022-08-20T17:55:58.458Z,21.05
2022-08-20T17:58:32.164Z,20.99
2022-08-20T18:01:01.911Z,20.93
2022-08-20T18:03:29.128Z,20.82
2022-08-20T18:06:01.449Z,20.78
2022-08-20T18:08:39.562Z,20.76
2022-08-20T18:11:17.614Z,20.72
2022-08-20T18:13:59.830Z,20.74
2022-08-20T18:16:31.045Z,20.75
2022-08-20T18:19:06.399Z,20.70
2022-08-20T18:22:03.676Z,20.72
2022-08-20T18:24:43.525Z,20.72
2022-08-20T18:27:15.122Z,20.71
2022-08-20T18:29:46.783Z,20.71
2022-08-20T18:32:29.602Z,20.72
2022-08-20T18:35:09.592Z,20.67
2022-08-20T18:37:37.319Z,20.67
2022-08-20T18:40:16.356Z,20.59
2022-08-20T18:42:44.660Z,20.55
2022-08-20T18:45:13.638Z,20.49
2022-08-20T18:47:45.445Z,20.47
2022-08-20T18:50:24.365Z,20.45
2022-08-20T18:53:05.257Z,20.41
2022-08-20T18:55:36.670Z,20.38
2022-08-20T18:58:07.327Z,20.42
2022-08-20T19:00:43.370Z,20.38
2022-08-20T19:03:18.959Z,20.38
2022-08-20T19:06:05.747Z,20.40
2022-08-20T19:08:44.931Z,20.40
2022-08-20T19:11:50.469Z,20.39
2022-08-20T19:14:39.506Z,20.40
2022-08-20T19:17:15.095Z,20.37
2022-08-20T19:19:42.688Z,20.35
2022-08-20T19:22:13.606Z,20.38
2022-08-20T19:24:43.718Z,20.36
2022-08-20T19:27:12.122Z,20.35
2022-08-20T19:29:45.938Z,20.35
2022-08-20T19:32:23.970Z,20.37
2022-08-20T19:34:53.927Z,20.34
2022-08-20T19:37:35.244Z,20.35
2022-08-20T19:40:21.260Z,20.29
2022-08-20T19:42:49.451Z,20.27
2022-08-20T19:45:25.993Z,20.24
2022-08-20T19:48:10.050Z,20.23
2022-08-20T19:50:42.510Z,20.16
2022-08-20T19:53:27.471Z,20.11
2022-08-20T19:56:00.488Z,20.02
2022-08-20T19:58:29.275Z,19.98
2022-08-20T20:00:57.144Z,19.86
2022-08-20T20:03:32.139Z,19.79
2022-08-20T20:06:00.886Z,19.72
2022-08-20T20:08:31.210Z,19.67
2022-08-20T20:11:01.041Z,19.64
2022-08-20T20:13:32.781Z,19.59
2022-08-20T20:16:07.306Z,19.58
2022-08-20T20:18:42.451Z,19.57
2022-08-20T20:21:14.610Z,19.60
2022-08-20T20:23:51.181Z,19.62
2022-08-20T20:26:19.338Z,19.64
2022-08-20T20:28:48.825Z,19.58
2022-08-20T20:31:22.518Z,19.63
2022-08-20T20:33:58.464Z,19.64
2022-08-20T20:36:35.828Z,19.65
2022-08-20T20:39:12.402Z,19.68
2022-08-20T20:41:51.549Z,19.66
2022-08-20T20:44:23.664Z,19.64
2022-08-20T20:46:55.847Z,19.67
2022-08-20T20:49:28.496Z,19.66
2022-08-20T20:52:00.957Z,19.68
2022-08-20T20:54:37.281Z,19.68
2022-08-20T20:57:09.872Z,19.72
2022-08-20T20:59:37.768Z,19.70
2022-08-20T21:02:06.566Z,19.67
2022-08-20T21:04:39.574Z,19.64
2022-08-20T21:07:12.125Z,19.68
2022-08-20T21:09:41.909Z,19.68
2022-08-20T21:12:11.283Z,19.69
2022-08-20T21:14:38.711Z,19.71
2022-08-20T21:17:09.261Z,19.72
2022-08-20T21:19:44.951Z,19.76
2022-08-20T21:22:12.951Z,19.76
2022-08-20T21:24:40.231Z,19.72
2022-08-20T21:27:08.616Z,19.71
2022-08-20T21:29:39.610Z,19.73
2022-08-20T21:32:07.749Z,19.71
2022-08-20T21:34:42.082Z,19.74
2022-08-20T21:37:09.882Z,19.73
2022-08-20T21:39:37.407Z,19.72
2022-08-20T21:42:18.529Z,19.71
2022-08-20T21:44:55.442Z,19.67
2022-08-20T21:47:22.580Z,19.61
2022-08-20T21:49:51.833Z,19.58
2022-08-20T21:52:19.293Z,19.54
2022-08-20T21:54:48.387Z,19.56
2022-08-20T21:57:21.173Z,19.57
2022-08-20T21:59:49.326Z,19.55
2022-08-20T22:02:17.631Z,19.57
2022-08-20T22:04:47.343Z,19.57
2022-08-20T22:07:17.750Z,19.58
2022-08-20T22:09:44.797Z,19.57
2022-08-20T22:12:17.686Z,19.55
2022-08-20T22:14:45.285Z,19.55
2022-08-20T22:17:13.297Z,19.61
2022-08-20T22:19:40.785Z,19.58
2022-08-20T22:22:09.426Z,19.57
2022-08-20T22:24:38.561Z,19.54
2022-08-20T22:27:08.934Z,19.53
2022-08-20T22:29:36.313Z,19.52
2022-08-20T22:32:05.334Z,19.58
2022-08-20T22:34:35.507Z,19.58
2022-08-20T22:37:03.994Z,19.58
2022-08-20T22:39:31.666Z,19.61
2022-08-20T22:42:07.675Z,19.65
2022-08-20T22:44:35.349Z,19.66
2022-08-20T22:47:07.350Z,19.62
2022-08-20T22:49:37.045Z,19.58
2022-08-20T22:52:05.520Z,19.53
2022-08-20T22:54:34.030Z,19.59
2022-08-20T22:57:02.765Z,19.61
2022-08-20T22:59:31.977Z,19.54
2022-08-20T23:02:08.282Z,19.51
2022-08-20T23:04:37.671Z,19.43
2022-08-20T23:07:09.284Z,19.43
2022-08-20T23:09:37.795Z,19.45
2022-08-20T23:12:08.816Z,19.41
2022-08-20T23:14:39.589Z,19.35
2022-08-20T23:17:13.691Z,19.35
2022-08-20T23:19:43.185Z,19.40
2022-08-20T23:22:13.736Z,19.37
2022-08-20T23:24:41.296Z,19.38
2022-08-20T23:27:14.890Z,19.36
2022-08-20T23:29:42.600Z,19.25
2022-08-20T23:32:10.381Z,19.20
2022-08-20T23:34:37.942Z,19.18
2022-08-20T23:37:06.741Z,19.18
2022-08-20T23:39:34.897Z,19.13
2022-08-20T23:42:03.992Z,19.06
2022-08-20T23:44:35.322Z,19.00
2022-08-20T23:47:03.521Z,18.92
2022-08-20T23:49:32.079Z,18.89
2022-08-20T23:51:59.998Z,18.80
2022-08-20T23:54:27.636Z,18.77
2022-08-20T23:56:56.978Z,18.76
2022-08-20T23:59:25.642Z,18.74
